Time;durP1;ratioP1;P1;durP2;ratioP2;P2;SDS_P1;SDS_P2;PMS_P1;PMS_P2;Temp;Humidity;BMP_temperature;BMP_pressure;BME280_temperature;BME280_humidity;BME280_pressure;Samples;Min_cycle;Max_cycle;Signal;HPM_P1;HPM_P2
2021/12/16 00:34:47;;;;;;;60.58;32.25;;;7.80;99.90;;;;;;12470093;28;20084;-90
2021/12/16 00:40:49;;;;;;;62.97;30.95;;;7.80;99.90;;;;;;12461378;28;20074;-89
2021/12/16 00:59:55;;;;;;;55.63;29.80;;;7.90;99.90;;;;;;12281589;28;20091;-90
2021/12/16 01:06:18;;;;;;;59.03;30.90;;;7.90;99.90;;;;;;12479425;28;20448;-90
2021/12/16 01:50:48;;;;;;;71.13;36.55;;;8.00;99.90;;;;;;12470760;28;20056;-90
2021/12/16 01:56:58;;;;;;;73.53;37.17;;;8.00;99.90;;;;;;12452833;28;20451;-90
2021/12/16 02:03:03;;;;;;;75.47;37.83;;;8.00;99.90;;;;;;12453516;28;20254;-90
2021/12/16 02:09:22;;;;;;;83.50;39.65;;;7.90;99.90;;;;;;12452817;28;20403;-90
2021/12/16 02:34:26;;;;;;;86.72;40.83;;;7.80;99.90;;;;;;12467355;28;20049;-89
2021/12/16 02:40:28;;;;;;;88.25;40.55;;;7.80;99.90;;;;;;12459389;28;20056;-90
2021/12/16 02:52:52;;;;;;;96.13;41.17;;;7.60;99.90;;;;;;12472060;28;20057;-89
2021/12/16 02:58:57;;;;;;;89.30;39.50;;;7.50;99.90;;;;;;12449939;28;20673;-89
2021/12/16 03:04:58;;;;;;;93.57;40.42;;;7.50;99.90;;;;;;12463762;28;20140;-90
2021/12/16 03:11:09;;;;;;;94.38;40.80;;;7.50;99.90;;;;;;12458984;28;20053;-89
2021/12/16 03:17:20;;;;;;;96.07;41.83;;;7.60;99.90;;;;;;12465483;28;20061;-91
2021/12/16 03:35:52;;;;;;;88.18;38.92;;;7.70;99.90;;;;;;12467718;28;20577;-89
2021/12/16 03:41:54;;;;;;;94.85;40.13;;;7.70;99.90;;;;;;12451937;28;20045;-90
2021/12/16 03:47:57;;;;;;;88.10;39.60;;;7.70;99.90;;;;;;12451691;28;20057;-90
2021/12/16 03:54:11;;;;;;;83.18;36.90;;;7.80;99.90;;;;;;12449641;28;20057;-89
2021/12/16 04:00:19;;;;;;;91.13;39.13;;;7.70;99.90;;;;;;12460851;28;20071;-90
2021/12/16 04:06:23;;;;;;;93.38;39.80;;;7.80;99.90;;;;;;12455074;28;20053;-91
2021/12/16 04:12:28;;;;;;;92.80;37.88;;;7.80;99.90;;;;;;12463228;28;20441;-89
2021/12/16 04:18:30;;;;;;;93.28;38.53;;;7.80;99.90;;;;;;12468177;28;20113;-89
2021/12/16 04:24:33;;;;;;;90.55;38.58;;;7.80;99.90;;;;;;12459299;28;20549;-88
2021/12/16 04:30:35;;;;;;;93.38;38.15;;;7.80;99.90;;;;;;12479051;28;20053;-90
2021/12/16 04:36:37;;;;;;;90.70;38.38;;;7.80;99.90;;;;;;12461060;28;20057;-90
2021/12/16 04:42:41;;;;;;;102.53;39.35;;;7.80;99.90;;;;;;12460563;28;20564;-90
2021/12/16 04:48:45;;;;;;;109.70;40.72;;;7.80;99.90;;;;;;12462557;28;20045;-89
2021/12/16 04:54:47;;;;;;;104.63;40.58;;;7.90;99.90;;;;;;12454489;28;20490;-90
2021/12/16 05:00:50;;;;;;;103.20;41.08;;;7.90;99.90;;;;;;12457473;28;20053;-90
2021/12/16 05:06:53;;;;;;;100.90;41.35;;;7.90;99.90;;;;;;12462129;28;20145;-89
2021/12/16 05:12:58;;;;;;;118.35;43.35;;;8.00;99.90;;;;;;12459805;28;20463;-89
2021/12/16 05:19:00;;;;;;;108.93;41.15;;;7.90;99.90;;;;;;12456949;28;20049;-90
2021/12/16 05:25:05;;;;;;;107.63;43.00;;;7.90;99.90;;;;;;12461572;28;20069;-90
2021/12/16 05:31:09;;;;;;;113.40;42.20;;;7.80;99.90;;;;;;12461562;28;20049;-90
2021/12/16 05:37:11;;;;;;;109.97;42.58;;;7.80;99.90;;;;;;12457372;28;20056;-90
2021/12/16 05:43:16;;;;;;;120.93;44.15;;;7.80;99.90;;;;;;12454383;28;20517;-90
2021/12/16 05:49:18;;;;;;;;;;;7.80;99.90;;;;;;12456460;28;20051;-89
2021/12/16 05:55:21;;;;;;;115.75;43.03;;;7.90;99.90;;;;;;12460406;28;19925;-90
2021/12/16 06:01:28;;;;;;;121.28;43.38;;;7.90;99.90;;;;;;12463838;28;20045;-90
2021/12/16 06:07:30;;;;;;;122.30;42.88;;;7.80;99.90;;;;;;12463984;28;20069;-90
2021/12/16 06:13:41;;;;;;;119.78;41.10;;;7.90;99.90;;;;;;12463296;28;20476;-89
2021/12/16 06:26:33;;;;;;;112.97;43.45;;;7.90;99.90;;;;;;12411862;28;20049;-90
2021/12/16 06:32:38;;;;;;;110.45;40.97;;;8.00;99.90;;;;;;12458296;28;20076;-90
2021/12/16 06:38:40;;;;;;;101.70;40.08;;;8.00;99.90;;;;;;12462388;28;20053;-90
2021/12/16 06:44:51;;;;;;;111.07;41.60;;;8.10;99.90;;;;;;12454636;28;20092;-90
2021/12/16 06:51:47;;;;;;;101.82;40.40;;;8.00;99.90;;;;;;12455426;28;20589;-90
2021/12/16 06:57:24;;;;;;;101.70;40.97;;;8.10;99.90;;;;;;12463623;28;20588;-90
2021/12/16 07:03:33;;;;;;;98.57;38.53;;;8.10;99.90;;;;;;12450282;28;20052;-90
2021/12/16 07:09:36;;;;;;;93.65;38.00;;;8.10;99.90;;;;;;12456347;28;20501;-90
2021/12/16 07:15:38;;;;;;;86.72;37.00;;;8.10;99.90;;;;;;12452130;28;20069;-91
2021/12/16 07:21:41;;;;;;;102.85;37.40;;;8.10;99.90;;;;;;12452177;28;20041;-90
2021/12/16 07:27:44;;;;;;;97.03;38.30;;;8.10;99.90;;;;;;12450036;28;20060;-90
2021/12/16 07:33:46;;;;;;;108.68;39.15;;;8.10;99.90;;;;;;12454996;28;20551;-90
2021/12/16 07:39:49;;;;;;;104.18;39.08;;;8.00;99.90;;;;;;12455730;28;20113;-90
2021/12/16 07:45:55;;;;;;;107.80;40.40;;;8.00;99.90;;;;;;12463784;28;20052;-90
2021/12/16 07:51:59;;;;;;;105.75;39.97;;;8.00;99.90;;;;;;12464776;28;20428;-90
2021/12/16 07:58:03;;;;;;;101.18;38.72;;;8.00;99.90;;;;;;12484625;28;20473;-90
2021/12/16 08:04:06;;;;;;;108.97;40.72;;;8.00;99.90;;;;;;12477533;28;20061;-90
2021/12/16 08:10:15;;;;;;;115.68;40.15;;;8.00;99.90;;;;;;12465365;28;20080;-90
2021/12/16 08:16:22;;;;;;;114.78;40.13;;;8.00;99.90;;;;;;12464799;28;20075;-90
2021/12/16 08:22:24;;;;;;;113.47;38.97;;;8.00;99.90;;;;;;12464873;28;20130;-90
2021/12/16 08:28:28;;;;;;;112.93;39.85;;;8.10;99.90;;;;;;12471668;28;20053;-90
2021/12/16 08:34:32;;;;;;;106.35;38.95;;;8.00;99.90;;;;;;12455469;28;20631;-90
2021/12/16 08:40:35;;;;;;;95.38;37.42;;;8.20;99.90;;;;;;12458766;28;20037;-90
2021/12/16 08:46:42;;;;;;;103.45;37.35;;;8.10;99.90;;;;;;12467429;28;20060;-90
2021/12/16 08:52:44;;;;;;;101.78;38.55;;;8.20;99.90;;;;;;12463281;28;20047;-90
2021/12/16 08:58:47;;;;;;;103.10;37.75;;;8.20;99.90;;;;;;12461796;28;20594;-89
2021/12/16 09:04:51;;;;;;;105.72;38.28;;;8.20;99.90;;;;;;12455461;28;20581;-90
2021/12/16 09:10:53;;;;;;;117.90;40.40;;;8.20;99.90;;;;;;12463359;28;20180;-90
2021/12/16 09:16:57;;;;;;;112.10;38.45;;;8.20;99.90;;;;;;12461561;28;20303;-90
2021/12/16 09:23:01;;;;;;;104.90;36.88;;;8.30;99.90;;;;;;12461993;28;20549;-91
2021/12/16 09:29:03;;;;;;;113.70;38.30;;;8.30;99.90;;;;;;12480252;28;20053;-90
2021/12/16 09:35:08;;;;;;;110.03;37.88;;;8.40;99.90;;;;;;12467327;28;20283;-90
2021/12/16 09:41:10;;;;;;;99.75;36.13;;;8.50;99.90;;;;;;12472181;28;20095;-89
2021/12/16 09:47:14;;;;;;;93.55;35.55;;;8.50;99.90;;;;;;12458914;28;20052;-91
2021/12/16 09:53:16;;;;;;;96.43;35.50;;;8.60;99.90;;;;;;12458950;28;20489;-90
2021/12/16 09:59:22;;;;;;;89.40;34.87;;;8.60;99.90;;;;;;12461219;28;20428;-91
2021/12/16 10:05:25;;;;;;;83.20;33.65;;;8.60;99.90;;;;;;12461412;28;20124;-89
2021/12/16 10:11:28;;;;;;;90.45;34.97;;;8.60;99.90;;;;;;12456912;28;20064;-91
2021/12/16 10:17:38;;;;;;;84.03;33.65;;;8.60;99.90;;;;;;12454376;28;20097;-90
2021/12/16 10:23:43;;;;;;;88.90;34.03;;;8.60;99.90;;;;;;12452531;28;20073;-89
2021/12/16 10:29:57;;;;;;;84.38;32.65;;;8.60;99.90;;;;;;12464977;28;20119;-90
2021/12/16 10:36:17;;;;;;;88.47;34.97;;;8.60;99.90;;;;;;12449221;28;20882;-90
2021/12/16 10:42:19;;;;;;;78.15;32.75;;;8.60;99.90;;;;;;12457750;28;20515;-90
2021/12/16 10:48:25;;;;;;;101.20;34.15;;;8.60;99.90;;;;;;12455240;28;20044;-90
2021/12/16 10:54:31;;;;;;;92.13;34.03;;;8.60;99.90;;;;;;12467850;28;20147;-89
2021/12/16 11:00:35;;;;;;;95.47;33.88;;;8.60;99.90;;;;;;12468062;28;20102;-89
2021/12/16 11:07:00;;;;;;;96.82;33.25;;;8.50;99.90;;;;;;12459497;28;20056;-88
2021/12/16 11:13:09;;;;;;;100.38;35.30;;;8.50;99.90;;;;;;12462644;28;20492;-88
2021/12/16 11:19:38;;;;;;;106.20;35.88;;;8.50;99.90;;;;;;12454169;28;20248;-88
2021/12/16 11:25:51;;;;;;;109.80;34.90;;;8.50;99.90;;;;;;12459092;28;20634;-88
2021/12/16 11:31:55;;;;;;;112.97;35.63;;;8.50;99.90;;;;;;12495935;28;20045;-88
2021/12/16 11:38:04;;;;;;;92.47;33.03;;;8.50;99.90;;;;;;12499252;28;20160;-88
2021/12/16 11:44:18;;;;;;;106.70;33.85;;;8.60;99.90;;;;;;12481124;28;20293;-89
2021/12/16 11:50:20;;;;;;;102.47;32.20;;;8.60;99.90;;;;;;12470792;28;20053;-89
2021/12/16 11:56:39;;;;;;;93.60;32.33;;;8.70;99.90;;;;;;12462823;28;20080;-88
2021/12/16 12:02:45;;;;;;;86.90;30.92;;;8.70;99.90;;;;;;12463906;28;20628;-87
2021/12/16 12:08:49;;;;;;;96.03;34.25;;;8.80;99.90;;;;;;12456212;28;20464;-88
2021/12/16 12:14:51;;;;;;;90.95;32.10;;;8.80;99.90;;;;;;12473218;28;20057;-88
2021/12/16 12:20:54;;;;;;;89.00;32.47;;;8.80;99.90;;;;;;12450692;28;20670;-88
2021/12/16 12:26:58;;;;;;;80.25;30.65;;;8.90;99.90;;;;;;12463937;28;20060;-88
2021/12/16 12:33:00;;;;;;;81.57;29.10;;;8.90;99.90;;;;;;12457653;28;20144;-88
2021/12/16 12:39:08;;;;;;;90.85;30.55;;;8.90;99.90;;;;;;12456915;28;20057;-89
2021/12/16 12:45:13;;;;;;;85.00;30.50;;;8.90;99.90;;;;;;12475638;28;20173;-89
2021/12/16 12:51:17;;;;;;;89.57;30.13;;;8.90;99.90;;;;;;12455220;28;20576;-88
2021/12/16 12:57:22;;;;;;;81.50;29.47;;;8.90;99.90;;;;;;12461198;28;20072;-89
2021/12/16 13:03:36;;;;;;;81.22;29.83;;;8.80;99.90;;;;;;12464114;28;20549;-89
2021/12/16 13:09:57;;;;;;;76.25;28.23;;;8.80;99.90;;;;;;12449288;28;20415;-88
2021/12/16 13:29:08;;;;;;;81.05;30.95;;;8.80;99.90;;;;;;12467638;28;20057;-88
2021/12/16 13:41:23;;;;;;;80.95;29.13;;;8.90;99.90;;;;;;12464655;28;20497;-89
2021/12/16 14:51:13;;;;;;;82.72;32.03;;;8.80;99.90;;;;;;12469536;28;20057;-89
2021/12/16 14:57:24;;;;;;;104.22;34.38;;;8.70;99.90;;;;;;12470368;28;20048;-89
2021/12/16 15:03:32;;;;;;;95.32;33.75;;;8.70;99.90;;;;;;12454203;28;20080;-89
2021/12/16 15:09:38;;;;;;;104.50;34.50;;;8.70;99.90;;;;;;12445204;28;20517;-88
2021/12/16 15:16:08;;;;;;;108.53;34.00;;;8.70;99.90;;;;;;12455147;28;20076;-88
2021/12/16 15:48:04;;;;;;;113.90;36.63;;;8.60;99.90;;;;;;12477109;28;20084;-88
2021/12/16 15:54:10;;;;;;;112.72;37.72;;;8.60;99.90;;;;;;12456837;28;20067;-88
2021/12/16 16:00:19;;;;;;;105.90;37.47;;;8.60;99.90;;;;;;12459698;28;20152;-88
2021/12/16 16:06:21;;;;;;;102.53;34.70;;;8.60;99.90;;;;;;12472849;28;20044;-89
2021/12/16 16:12:29;;;;;;;111.78;37.42;;;8.60;99.90;;;;;;12495839;28;20048;-88
2021/12/16 16:18:35;;;;;;;114.05;38.53;;;8.60;99.90;;;;;;12482541;28;20064;-89
2021/12/16 16:24:48;;;;;;;107.28;37.83;;;8.60;99.90;;;;;;12472221;28;20037;-88
2021/12/16 16:30:53;;;;;;;121.68;39.47;;;8.60;99.90;;;;;;12469403;28;20433;-88
2021/12/16 16:37:02;;;;;;;108.88;37.80;;;8.60;99.90;;;;;;12476339;28;20196;-88
2021/12/16 16:43:16;;;;;;;122.25;40.47;;;8.60;99.90;;;;;;12465939;28;20076;-89
2021/12/16 16:49:30;;;;;;;118.82;37.50;;;8.70;99.90;;;;;;12469996;28;20449;-88
2021/12/16 16:55:35;;;;;;;125.18;40.35;;;8.60;99.90;;;;;;12472242;28;20457;-88
2021/12/16 17:01:37;;;;;;;109.10;37.55;;;8.60;99.90;;;;;;12467658;28;20524;-89
2021/12/16 17:07:45;;;;;;;94.50;30.33;;;8.60;99.90;;;;;;12468909;28;20048;-89
2021/12/16 17:14:08;;;;;;;96.50;34.60;;;8.60;99.90;;;;;;12467146;28;20155;-89
2021/12/16 17:20:15;;;;;;;116.07;37.15;;;8.50;99.90;;;;;;12468861;28;20347;-88
2021/12/16 17:26:32;;;;;;;116.85;38.95;;;8.50;99.90;;;;;;12457767;28;20049;-88
2021/12/16 17:32:41;;;;;;;111.13;38.05;;;8.50;99.90;;;;;;12454703;28;20102;-88
2021/12/16 17:38:43;;;;;;;121.55;42.03;;;8.50;99.90;;;;;;12452036;28;20060;-88
2021/12/16 17:44:49;;;;;;;118.78;39.63;;;8.50;99.90;;;;;;12448962;28;20123;-88
2021/12/16 17:50:56;;;;;;;137.45;42.28;;;8.60;99.90;;;;;;12452349;28;20698;-89
2021/12/16 17:56:59;;;;;;;135.48;42.13;;;8.50;99.90;;;;;;12479221;28;20053;-88
2021/12/16 18:03:03;;;;;;;127.88;40.83;;;8.60;99.90;;;;;;12465214;28;20067;-88
2021/12/16 18:09:10;;;;;;;134.38;42.42;;;8.50;99.90;;;;;;12457731;28;20053;-89
2021/12/16 18:15:22;;;;;;;139.13;41.42;;;8.60;99.90;;;;;;12470564;28;20053;-88
2021/12/16 18:21:25;;;;;;;127.28;42.00;;;8.60;99.90;;;;;;12484157;28;20479;-88
2021/12/16 18:27:34;;;;;;;134.98;41.53;;;8.60;99.90;;;;;;12472625;28;20317;-88
2021/12/16 18:33:43;;;;;;;112.10;39.45;;;8.60;99.90;;;;;;12491520;28;20105;-89
2021/12/16 18:39:48;;;;;;;131.95;41.92;;;8.50;99.90;;;;;;12464071;28;20525;-89
2021/12/16 18:45:52;;;;;;;140.95;42.72;;;8.50;99.90;;;;;;12462209;28;20057;-88
2021/12/16 18:52:12;;;;;;;151.32;42.30;;;8.50;99.90;;;;;;12477704;28;20078;-88
2021/12/16 18:58:14;;;;;;;122.57;41.58;;;8.50;99.90;;;;;;12479452;28;20052;-88
2021/12/16 19:04:20;;;;;;;131.90;40.78;;;8.50;99.90;;;;;;12463027;28;20047;-88
2021/12/16 19:10:26;;;;;;;140.35;41.72;;;8.50;99.90;;;;;;12462192;28;20048;-88
2021/12/16 19:16:28;;;;;;;141.30;42.85;;;8.50;99.90;;;;;;12456231;28;20096;-88
2021/12/16 19:22:30;;;;;;;146.27;41.35;;;8.50;99.90;;;;;;12470372;28;20463;-88
2021/12/16 19:28:32;;;;;;;152.35;43.97;;;8.50;99.90;;;;;;12463678;28;20483;-89
2021/12/16 19:34:35;;;;;;;153.75;43.88;;;8.50;99.90;;;;;;12471972;28;20516;-88
2021/12/16 19:40:38;;;;;;;152.27;43.47;;;8.50;99.90;;;;;;12468336;28;20072;-88
2021/12/16 19:46:41;;;;;;;151.45;41.72;;;8.50;99.90;;;;;;12465624;28;20096;-88
2021/12/16 19:52:43;;;;;;;152.23;44.00;;;8.40;99.90;;;;;;12458462;28;20136;-87
2021/12/16 19:58:47;;;;;;;165.30;46.92;;;8.50;99.90;;;;;;12464970;28;20052;-88
2021/12/16 20:04:49;;;;;;;156.00;44.30;;;8.50;99.90;;;;;;12470283;28;20057;-88
2021/12/16 20:10:58;;;;;;;156.70;44.97;;;8.50;99.90;;;;;;12469181;28;20045;-88
2021/12/16 20:17:04;;;;;;;144.50;40.70;;;8.40;99.90;;;;;;12464557;28;20857;-88
2021/12/16 20:23:09;;;;;;;172.48;43.13;;;8.40;99.90;;;;;;12459939;28;20052;-88
2021/12/16 20:29:20;;;;;;;162.88;42.63;;;8.30;99.90;;;;;;12456621;28;20391;-88
2021/12/16 20:35:38;;;;;;;155.77;41.28;;;8.30;99.90;;;;;;12456387;28;20141;-88
2021/12/16 20:41:45;;;;;;;144.30;43.05;;;8.30;99.90;;;;;;12463318;28;20115;-88
2021/12/16 20:47:47;;;;;;;153.38;43.67;;;8.30;99.90;;;;;;12483942;28;20056;-88
2021/12/16 20:53:57;;;;;;;166.40;42.50;;;8.30;99.90;;;;;;12463820;28;20567;-89
2021/12/16 21:00:03;;;;;;;142.48;42.22;;;8.30;99.90;;;;;;12459426;28;20085;-88
2021/12/16 21:06:08;;;;;;;134.32;41.35;;;8.30;99.90;;;;;;12470140;28;20050;-87
2021/12/16 21:12:13;;;;;;;143.77;42.28;;;8.20;99.90;;;;;;12457923;28;21022;-88
2021/12/16 21:18:18;;;;;;;137.23;41.08;;;8.20;99.90;;;;;;12464112;28;20533;-87
2021/12/16 21:24:21;;;;;;;132.40;41.45;;;8.30;99.90;;;;;;12464231;28;20060;-88
2021/12/16 21:30:23;;;;;;;154.70;42.40;;;8.30;99.90;;;;;;12464044;28;20168;-88
2021/12/16 21:36:29;;;;;;;133.77;40.90;;;8.30;99.90;;;;;;12479318;28;20049;-88
2021/12/16 21:42:33;;;;;;;162.23;42.83;;;8.30;99.90;;;;;;12461004;28;20069;-88
2021/12/16 21:48:36;;;;;;;167.18;42.03;;;8.20;99.90;;;;;;12455617;28;20250;-88
2021/12/16 21:54:38;;;;;;;154.10;41.17;;;8.20;99.90;;;;;;12474929;28;20049;-88
2021/12/16 22:00:42;;;;;;;151.13;41.42;;;8.20;99.90;;;;;;12460188;28;20131;-88
2021/12/16 22:06:44;;;;;;;155.63;41.10;;;8.20;99.90;;;;;;12463113;28;20144;-88
2021/12/16 22:12:46;;;;;;;151.20;40.72;;;8.20;99.90;;;;;;12461285;28;20463;-88
2021/12/16 22:18:50;;;;;;;127.25;39.17;;;8.10;99.90;;;;;;12463465;28;20080;-88
2021/12/16 22:24:52;;;;;;;139.50;41.10;;;8.10;99.90;;;;;;12471980;28;20045;-88
2021/12/16 22:30:54;;;;;;;133.20;38.67;;;8.10;99.90;;;;;;12458887;28;20049;-88
2021/12/16 22:37:00;;;;;;;146.93;39.13;;;8.20;99.90;;;;;;12481495;28;20049;-88
2021/12/16 22:43:04;;;;;;;124.38;35.33;;;8.10;99.90;;;;;;12451225;28;20516;-88
2021/12/16 22:49:07;;;;;;;;;;;8.10;99.90;;;;;;12480043;28;20055;-88
2021/12/16 22:55:10;;;;;;;123.78;38.33;;;8.10;99.90;;;;;;12485186;28;19921;-88
2021/12/16 23:01:15;;;;;;;113.32;35.28;;;8.10;99.90;;;;;;12476834;28;20121;-88
2021/12/16 23:07:17;;;;;;;139.32;38.47;;;8.10;99.90;;;;;;12475393;28;20085;-87
2021/12/16 23:13:23;;;;;;;125.32;38.90;;;8.00;99.90;;;;;;12466160;28;20136;-88
2021/12/16 23:26:08;;;;;;;142.38;39.22;;;8.10;99.90;;;;;;12476173;28;20057;-88
2021/12/16 23:32:10;;;;;;;139.23;38.53;;;8.10;99.90;;;;;;12462847;28;20128;-88
2021/12/16 23:56:54;;;;;;;139.48;38.05;;;8.00;99.90;;;;;;12482967;28;20053;-88
